• Join FlightAware (Why Join?)
  • Login
  • US Flag 
10:31PM EDT


 

Airport Tracker/Info


-or-


 

Live Flight TrackerFlight Track Log ✈ AXM5243 ✈ 30-Aug-2013 ✈ WBGB / BTU - WMKK / KUL

Flight Track Log - Related Links

Times and Time Zones

All times are in EDT time to prevent confusion due to time zone crossing. See the AXM5243 flight status page for this flight to view local times or setup timezone preferences in your user account.

Time Position Orientation Groundspeed Altitude Reporting Facility
EDT Latitude Longitude Course Direction KTS MPH feet Rate Location/Type
08:41AM 2.9370 111.4860 262° West 437 503 29,800  Level FlightAware
08:41AM 2.9270 111.4160 262° West 437 503 29,800  Level FlightAware
08:42AM 2.9180 111.3510 262° West 437 503 29,800 120 Level FlightAware
08:43AM 2.9030 111.2460 262° West 447 514 30,000 120 Climbing FlightAware
08:43AM 2.8930 111.1690 263° West 448 516 30,000  Level FlightAware
08:44AM 2.8810 111.0860 262° West 446 513 30,000  Level FlightAware
08:45AM 2.8660 110.9800 262° West 445 512 30,000  Level FlightAware
08:45AM 2.8550 110.8980 262° West 446 513 30,000  Level FlightAware
08:46AM 2.8450 110.8260 262° West 447 514 30,000  Level FlightAware
08:47AM 2.8350 110.7570 262° West 447 514 30,000  Level FlightAware
08:47AM 2.8250 110.6860 262° West 446 513 30,000  Level FlightAware
08:48AM 2.8150 110.6120 262° West 446 513 30,000  Level FlightAware
08:48AM 2.8040 110.5340 262° West 446 513 30,000  Level FlightAware
08:49AM 2.7930 110.4580 262° West 447 514 30,000  Level FlightAware
08:50AM 2.7830 110.3840 262° West 447 514 30,000  Level FlightAware
08:51AM 2.7670 110.2670 262° West 447 514 30,000  Level FlightAware
08:51AM 2.7560 110.1910 262° West 448 516 30,000  Level FlightAware
08:52AM 2.7480 110.1370 262° West 447 514 30,000 60 Level FlightAware
08:52AM 2.7390 110.0700 262° West 445 512 30,100  Climbing FlightAware
08:53AM 2.7290 110.0020 262° West 444 511 30,000 -120 Descending FlightAware
08:53AM 2.7180 109.9230 262° West 442 509 30,000  Level FlightAware
08:54AM 2.7090 109.8560 262° West 442 509 30,000  Level FlightAware
08:55AM 2.6980 109.7750 262° West 442 509 30,000  Level FlightAware
08:55AM 2.6890 109.7130 262° West 443 510 30,000  Level FlightAware
08:56AM 2.6790 109.6420 262° West 444 511 30,000  Level FlightAware
08:56AM 2.6680 109.5640 262° West 445 512 30,000  Level FlightAware
08:57AM 2.6590 109.5020 262° West 445 512 30,000  Level FlightAware
08:57AM 2.6480 109.4210 262° West 446 513 30,000  Level FlightAware
08:58AM 2.6380 109.3530 262° West 447 514 30,000  Level FlightAware
08:59AM 2.6270 109.2740 262° West 447 514 30,000  Level FlightAware
08:59AM 2.6180 109.2090 262° West 447 514 30,000  Level FlightAware
09:00AM 2.6070 109.1330 262° West 447 514 30,000  Level FlightAware
09:01AM 2.5950 109.0480 262° West 446 513 30,000  Level FlightAware
09:01AM 2.5830 108.9650 262° West 446 513 30,000  Level FlightAware
09:02AM 2.5640 108.8920 255° West 446 513 30,000  Level FlightAware
09:02AM 2.5420 108.8330 250° West 445 512 30,000  Level FlightAware
09:03AM 2.5040 108.7350 249° West 445 512 30,000  Level FlightAware
09:04AM 2.4810 108.6730 250° West 445 512 30,000  Level FlightAware
09:04AM 2.4590 108.6160 249° West 445 512 30,000  Level FlightAware
09:05AM 2.4360 108.5570 249° West 445 512 30,000  Level FlightAware
09:06AM 2.4140 108.4980 250° West 445 512 30,000  Level FlightAware
09:06AM 2.3900 108.4380 248° West 445 512 30,000  Level FlightAware
09:07AM 2.3430 108.3180 249° West 446 513 30,000  Level FlightAware
09:07AM 2.3150 108.2440 249° West 446 513 30,000  Level FlightAware
09:08AM 2.2850 108.1660 249° West 446 513 30,000  Level FlightAware
09:09AM 2.2600 108.1020 249° West 446 513 30,000  Level FlightAware
09:10AM 2.2300 108.0240 249° West 446 513 30,000  Level FlightAware
09:10AM 2.2090 107.9680 249° West 446 513 30,000  Level FlightAware
09:11AM 2.1770 107.8860 249° West 446 513 30,000  Level FlightAware
09:12AM 2.1550 107.8270 250° West 446 513 30,000  Level FlightAware
09:12AM 2.1320 107.7660 249° West 446 513 30,000  Level FlightAware
09:13AM 2.1060 107.7010 248° West 446 513 30,000  Level FlightAware
09:14AM 2.0830 107.6380 250° West 446 513 30,000  Level FlightAware
09:14AM 2.0590 107.5780 248° West 446 513 30,000  Level FlightAware
09:15AM 2.0380 107.5220 249° West 446 513 30,000  Level FlightAware
09:15AM 2.0150 107.4630 249° West 446 513 30,000  Level FlightAware
09:16AM 1.9920 107.4020 249° West 446 513 30,000  Level FlightAware
09:17AM 1.9690 107.3420 249° West 446 513 30,000  Level FlightAware
09:17AM 1.9450 107.2800 249° West 446 513 30,000 240 Level FlightAware
09:20AM 1.9801 107.0387 278° West  Level Estimated
09:21AM 1.9951 106.9360 278° West  Level Estimated
09:22AM 2.0100 106.8332 278° West  Level Estimated
09:23AM 2.0250 106.7305 278° West  Level Estimated
09:24AM 2.0399 106.6278 278° West  Level Estimated
09:24AM 2.6070 106.2360 278° West 452 520 32,000  Level FlightAware
09:25AM 2.6240 106.1740 285° West 453 521 32,000  Level FlightAware
09:25AM 2.6470 106.0930 286° West 454 522 32,000  Level FlightAware
09:26AM 2.6680 106.0160 285° West 454 522 32,000  Level FlightAware
09:27AM 2.6880 105.9440 286° West 454 522 32,000  Level FlightAware
09:27AM 2.7100 105.8630 285° West 453 521 32,000  Level FlightAware
09:28AM 2.7280 105.8000 286° West 452 520 32,000  Level FlightAware
09:28AM 2.7470 105.7280 285° West 452 520 32,000  Level FlightAware
09:29AM 2.7670 105.6570 286° West 451 519 32,000  Level FlightAware
09:30AM 2.7880 105.5800 285° West 453 521 32,000  Level FlightAware
09:30AM 2.8050 105.5200 286° West 451 519 32,000  Level FlightAware
09:31AM 2.8250 105.4460 285° West 452 520 32,000  Level FlightAware
09:31AM 2.8440 105.3760 285° West 452 520 32,000  Level FlightAware
09:32AM 2.8660 105.2970 286° West 454 522 32,000  Level FlightAware
09:32AM 2.8850 105.2300 286° West 454 522 32,000  Level FlightAware
09:33AM 2.9050 105.1560 285° West 454 522 32,000  Level FlightAware
09:34AM 2.9220 105.0930 285° West 455 524 32,000  Level FlightAware
09:34AM 2.9400 105.0280 285° West 454 522 32,000  Level FlightAware
09:35AM 2.9620 104.9500 286° West 452 520 32,000  Level FlightAware
09:35AM 2.9830 104.8710 285° West 450 518 32,000  Level FlightAware
09:36AM 3.0040 104.7960 286° West 448 516 32,000  Level FlightAware
09:37AM 3.0230 104.7280 286° West 448 516 32,000  Level FlightAware
09:37AM 3.0440 104.6530 286° West 449 517 32,000  Level FlightAware
09:38AM 3.0610 104.5910 285° West 448 516 32,000  Level FlightAware
09:38AM 3.0820 104.5130 285° West 450 518 32,000  Level FlightAware
09:39AM 3.1000 104.4480 286° West 450 518 32,000  Level FlightAware
09:39AM 3.1180 104.3850 286° West 451 519 32,000  Level FlightAware
09:40AM 3.1380 104.3100 285° West 451 519 32,000  Level FlightAware
09:41AM 3.1690 104.1980 285° West 451 519 32,000  Level FlightAware
09:41AM 3.1840 104.1400 285° West 451 519 32,000  Level FlightAware
09:42AM 3.1960 104.0980 286° West 451 519 32,000  Level FlightAware
09:43AM 3.2190 104.0140 285° West 452 520 32,000  Level FlightAware
09:43AM 3.2410 103.9350 286° West 453 521 32,000  Level FlightAware
09:44AM 3.2670 103.8410 285° West 455 524 32,000  Level FlightAware
09:45AM 3.2880 103.7660 286° West 455 524 32,000  Level FlightAware
09:45AM 3.3120 103.6800 286° West 456 525 32,000  Level FlightAware
09:46AM 3.3290 103.6200 286° West 455 524 32,000  Level FlightAware
09:46AM 3.3460 103.5540 284° West 455 524 32,000  Level FlightAware
09:47AM 3.3670 103.4800 286° West 453 521 32,000  Level FlightAware
09:48AM 3.3840 103.4160 285° West 453 521 32,000  Level FlightAware
09:48AM 3.4010 103.3520 285° West 453 521 32,000  Level FlightAware
09:49AM 3.3780 103.2440 258° West 32,000  Level FlightAware
09:49AM 3.3770 103.2280 266° West 445 512 32,000  Level FlightAware
09:50AM 3.3740 103.1380 268° West 445 512 32,000  Level FlightAware
09:50AM 3.3720 103.0650 268° West 445 512 32,000  Level FlightAware
09:51AM 3.3700 103.0020 268° West 445 512 32,000  Level FlightAware
09:52AM 3.3680 102.9370 268° West 445 512 32,000  Level FlightAware
09:52AM 3.3660 102.8740 268° West 445 512 32,000  Level FlightAware
09:53AM 3.3620 102.7370 268° West 445 512 32,000  Level FlightAware
09:54AM 3.3600 102.6700 268° West 445 512 32,000 -900 Level FlightAware
09:54AM 3.3580 102.6010 268° West 426 490 31,100 -1,020 Descending FlightAware
09:55AM 3.3450 102.5430 257° West 429 494 31,000 -180 Descending FlightAware
09:55AM 3.3410 102.5340 246° West 428 493 31,000  Level FlightAware
09:55AM 3.3280 102.4940 252° West 428 493 31,000  Level FlightAware
09:55AM 3.3210 102.4750 250° West 428 493 31,000  Level FlightAware
09:56AM 3.3130 102.4520 251° West 428 493 31,000  Level FlightAware
09:56AM 3.3080 102.4360 253° West 403 464 31,000  Level FlightAware
09:56AM 3.2940 102.3960 251° West 403 464 31,000  Level FlightAware
09:56AM 3.2900 102.3820 254° West 392 451 31,000  Level FlightAware
09:56AM 3.2780 102.3460 252° West 399 459 31,000  Level FlightAware
09:57AM 3.2730 102.3310 252° West 383 441 31,000  Level FlightAware
09:57AM 3.2680 102.3160 252° West 384 442 31,000  Level FlightAware
09:57AM 3.2600 102.2910 252° West 383 441 31,000  Level FlightAware
09:57AM 3.2510 102.2640 252° West 385 443 31,000  Level FlightAware
09:57AM 3.2440 102.2450 250° West 385 443 31,000  Level FlightAware
09:58AM 3.2370 102.2230 252° West 384 442 31,000  Level FlightAware
09:58AM 3.2300 102.2030 251° West 385 443 31,000  Level FlightAware
09:58AM 3.2210 102.1760 252° West 385 443 31,000  Level FlightAware
09:58AM 3.2160 102.1590 254° West 386 444 31,000  Level FlightAware
09:59AM 3.2130 102.1510 249° West 386 444 31,000  Level FlightAware
09:59AM 3.2070 102.1320 252° West 386 444 31,000  Level FlightAware
09:59AM 3.1990 102.1100 250° West 386 444 31,000  Level FlightAware
09:59AM 3.1870 102.0740 252° West 387 445 31,000  Level FlightAware
09:59AM 3.1820 102.0590 252° West 387 445 31,000 -1,140 Level FlightAware
09:59AM 3.1800 102.0510 256° West 386 444 30,800 -2,400 Descending FlightAware
09:59AM 3.1730 102.0320 250° West 393 452 30,400 -1,260 Descending FlightAware
10:01AM 3.1670 101.8940 268° West 386 444 29,000 -1,020 Descending FlightAware
10:01AM 3.1750 101.8770 295° West 386 444 29,000  Level FlightAware
10:01AM 3.1850 101.8630 306° West 378 435 29,000  Level FlightAware
10:01AM 3.2050 101.8480 323° Northwest 371 427 29,000  Level FlightAware
10:01AM 3.2210 101.8400 333° Northwest 362 417 29,000  Level FlightAware
10:02AM 3.2530 101.8350 351° North 349 402 29,000  Level FlightAware
10:02AM 3.2650 101.8370 North 347 399 29,000  Level FlightAware
10:02AM 3.2760 101.8390 10° North 343 395 29,000  Level FlightAware
10:02AM 3.2830 101.8410 16° North 338 389 29,000  Level FlightAware
10:03AM 3.3210 101.8700 37° Northeast 329 379 29,000  Level FlightAware
10:03AM 3.3250 101.8750 51° Northeast 329 379 29,000  Level FlightAware
10:03AM 3.3320 101.8890 63° Northeast 327 376 29,000  Level FlightAware
10:03AM 3.3350 101.8960 67° East 327 376 29,000  Level FlightAware
10:03AM 3.3370 101.9040 76° East 327 376 29,000  Level FlightAware
10:03AM 3.3390 101.9120 76° East 328 377 29,000  Level FlightAware
10:03AM 3.3400 101.9270 86° East 329 379 29,000  Level FlightAware
10:03AM 3.3410 101.9340 82° East 329 379 29,000  Level FlightAware
10:03AM 3.3410 101.9420 90° East 329 379 29,000  Level FlightAware
10:04AM 3.3420 101.9650 88° East 327 376 29,000  Level FlightAware
10:04AM 3.3430 101.9800 86° East 322 371 29,000  Level FlightAware
10:04AM 3.3440 101.9880 83° East 320 368 29,000  Level FlightAware
10:04AM 3.3440 102.0020 90° East 317 365 29,000  Level FlightAware
10:04AM 3.3450 102.0160 86° East 314 361 29,000  Level FlightAware
10:04AM 3.3460 102.0310 86° East 313 360 29,000  Level FlightAware
10:05AM 3.3470 102.0520 87° East 314 361 29,000 -480 Level FlightAware
10:05AM 3.3480 102.0670 86° East 315 362 28,800 -1,500 Descending FlightAware
10:05AM 3.3490 102.0750 83° East 316 364 28,600 -2,160 Descending FlightAware
10:05AM 3.3490 102.0890 90° East 318 366 28,300 -1,500 Descending FlightAware
10:06AM 3.3390 102.1320 103° East 323 372 27,500 -1,500 Descending FlightAware
10:06AM 3.3260 102.1500 126° Southeast 322 371 27,200 -1,200 Descending FlightAware
10:06AM 3.3100 102.1640 139° Southeast 321 369 27,000 -360 Descending FlightAware
10:06AM 3.2810 102.1770 156° South 334 384 27,000  Level FlightAware
10:07AM 3.2580 102.1800 173° South 341 392 27,000 -420 Level FlightAware
10:07AM 3.2240 102.1740 190° South 343 395 26,700 -1,020 Descending FlightAware
10:08AM 3.1870 102.1440 219° Southwest 350 403 26,000 -1,560 Descending FlightAware
10:08AM 3.1680 102.0870 252° West 349 402 25,200 -1,320 Descending FlightAware
10:09AM 3.1660 102.0330 268° West 337 388 24,600 -1,200 Descending FlightAware
10:09AM 3.1630 101.9880 266° West 329 379 23,900 -1,620 Descending FlightAware
10:10AM 3.1600 101.9260 267° West 326 375 22,800 -1,800 Descending FlightAware
10:10AM 3.1750 101.8890 292° West 327 376 22,000 -1,560 Descending FlightAware
10:11AM 3.2060 101.8730 333° Northwest 315 362 21,300 -1,020 Descending FlightAware
10:11AM 3.2530 101.8860 15° North 297 342 21,000 -540 Descending FlightAware
10:12AM 3.2680 101.9090 57° Northeast 289 333 20,900 -840 Descending FlightAware
10:12AM 3.2710 101.9220 77° East 288 331 20,600 -1,680 Descending FlightAware
10:12AM 3.2730 101.9610 87° East 287 330 19,800 -1,200 Descending FlightAware
10:13AM 3.2740 102.0040 89° East 283 326 19,100 -1,320 Descending FlightAware
10:13AM 3.2660 102.0260 110° East 282 325 18,600 -2,400 Descending FlightAware
10:14AM 3.2460 102.0430 140° Southeast 292 336 18,000 -2,040 Descending FlightAware
10:14AM 3.2330 102.0460 167° South 291 335 17,800 -1,440 Descending FlightAware
10:14AM 3.2040 102.0420 188° South 298 343 17,200 -1,920 Descending FlightAware
10:14AM 3.1830 102.0200 226° Southwest 318 366 16,400 -1,560 Descending FlightAware
10:15AM 3.1610 101.9590 250° West 306 352 15,600 -1,200 Descending FlightAware
10:16AM 3.1550 101.9010 264° West 300 345 14,800 -1,140 Descending FlightAware
10:16AM 3.1550 101.8600 270° West 296 341 14,300 -1,320 Descending FlightAware
10:17AM 3.1550 101.8110 270° West 294 338 13,400 -1,680 Descending FlightAware
10:18AM 3.1560 101.7640 271° West 289 333 12,400 -1,500 Descending FlightAware
10:18AM 3.1560 101.7280 270° West 283 326 11,600 -1,740 Descending FlightAware
10:19AM 3.1550 101.6730 269° West 274 315 10,400 -1,320 Descending FlightAware
10:19AM 3.1550 101.6370 270° West 266 306 10,000 -960 Descending FlightAware
10:20AM 3.1550 101.5930 270° West 258 297 9,400 -1,140 Descending FlightAware
10:20AM 3.1560 101.5640 272° West 248 285 9,100 -480 Descending FlightAware
10:20AM 3.1560 101.5470 270° West 247 284 9,100  Level FlightAware
10:21AM 3.1560 101.5240 270° West 242 278 9,100  Level FlightAware
10:21AM 3.1560 101.5200 270° West 242 278 9,100 -1,080 Level FlightAware
10:22AM 3.1350 101.4790 243° Southwest 256 295 8,300 -1,260 Descending FlightAware
10:22AM 3.1200 101.4600 232° Southwest 257 296 8,100 -300 Descending FlightAware
10:22AM 3.1010 101.4380 229° Southwest 242 278 8,100  Level FlightAware
10:23AM 3.0910 101.4250 232° Southwest 239 275 8,100  Level FlightAware
10:23AM 3.0770 101.4080 230° Southwest 239 275 8,100  Level FlightAware
10:23AM 3.0720 101.4050 211° Southwest 238 274 8,100 -600 Level FlightAware
10:23AM 3.0670 101.4020 211° Southwest 238 274 8,000 -1,800 Descending FlightAware
10:23AM 3.0510 101.3990 191° South 247 284 7,500 -1,620 Descending FlightAware
10:23AM 3.0400 101.4010 170° South 248 285 7,300 -1,020 Descending FlightAware
10:24AM 3.0340 101.4030 162° South 247 284 7,200 -600 Descending FlightAware
10:24AM 3.0220 101.4150 135° Southeast 251 289 7,100 -240 Descending FlightAware
10:24AM 3.0160 101.4310 111° Southeast 248 285 7,100 -480 Level FlightAware
10:24AM 3.0250 101.4570 71° East 229 264 6,800 -600 Descending FlightAware
10:25AM 3.0340 101.4690 53° Northeast 216 249 6,700 -960 Descending FlightAware
10:25AM 3.0490 101.4890 53° Northeast 206 237 6,200 -1,260 Descending FlightAware
10:26AM 3.0590 101.5090 63° Northeast 203 234 5,700 -900 Descending FlightAware
10:26AM 3.0550 101.5210 108° East 202 232 5,500 -720 Descending FlightAware
10:26AM 3.0510 101.5240 143° Southeast 202 232 5,400 -720 Descending FlightAware
10:26AM 3.0420 101.5280 156° South 199 229 5,300 -720 Descending FlightAware
10:26AM 3.0280 101.5350 153° Southeast 191 220 5,100 -780 Descending FlightAware
10:27AM 3.0170 101.5420 148° Southeast 189 217 4,900 -660 Descending FlightAware
10:27AM 3.0020 101.5520 146° Southeast 188 216 4,700 -720 Descending FlightAware
10:27AM 2.9860 101.5630 146° Southeast 187 215 4,400 -780 Descending FlightAware
10:28AM 2.9760 101.5700 145° Southeast 187 215 4,200 -720 Descending FlightAware
10:28AM 2.9560 101.5820 149° Southeast 184 212 3,900 -840 Descending FlightAware
10:29AM 2.9420 101.5920 144° Southeast 176 203 3,600 -840 Descending FlightAware
10:29AM 2.9250 101.6040 145° Southeast 168 193 3,300 -660 Descending FlightAware
10:29AM 2.9130 101.6120 146° Southeast 161 185 3,100 -300 Descending FlightAware
10:30AM 2.8980 101.6220 146° Southeast 161 185 3,100 -840 Level FlightAware
10:30AM 2.8870 101.6290 148° Southeast 157 181 2,500 -1,380 Descending FlightAware
10:30AM 2.8730 101.6390 144° Southeast 134 154 2,200 -720 Descending FlightAware
10:31AM 2.8620 101.6460 148° Southeast 132 152 2,000 -600 Descending FlightAware
10:31AM 2.8520 101.6520 149° Southeast 132 152 1,800 -420 Descending FlightAware
10:32AM 2.8340 101.6650 144° Southeast 132 152 1,600 -720 Descending FlightAware
10:32AM 2.8190 101.6740 149° Southeast 135 155 1,100 -1,080 Descending FlightAware
10:33AM 2.8060 101.6830 145° Southeast 137 158 800 -720 Descending FlightAware
10:33AM 2.8040 101.6850 135° Southeast 137 158 700 -180 Descending FlightAware
10:33AM 2.7920 101.6930 146° Southeast 137 158 700  Level FlightAware
10:36AM 2.7456 101.7099 160° South  Level Estimated